Time,TemperatureF,DewpointF,PressureIn,WindDirection,WindDirectionDegrees,WindSpeedMPH,WindSpeedGustMPH,Humidity,HourlyPrecipIn,Conditions,Clouds,dailyrainin,SoftwareType,DateUTC
2013-04-15 00:08:00,51.1,50.6,29.97,SE,135,0.0,-999.0,98,-99.99,,,0.00,Acu-Link.com,2013-04-15 04:08:00,
2013-04-15 00:28:00,50.9,50.4,29.98,NW,315,0.0,-999.0,98,-99.99,,,0.00,Acu-Link.com,2013-04-15 04:28:00,
2013-04-15 00:44:00,50.9,50.4,29.97,WSW,247,0.0,-999.0,98,-99.99,,,0.00,Acu-Link.com,2013-04-15 04:44:00,
2013-04-15 01:09:00,50.9,50.4,29.97,SW,225,0.0,-999.0,98,-99.99,,,0.00,Acu-Link.com,2013-04-15 05:09:00,
2013-04-15 01:26:00,50.9,50.4,29.98,ESE,112,0.0,-999.0,98,-99.99,,,0.00,Acu-Link.com,2013-04-15 05:26:00,
2013-04-15 01:46:00,50.9,50.4,29.98,SSE,157,0.0,-999.0,98,-99.99,,,0.00,Acu-Link.com,2013-04-15 05:46:00,
2013-04-15 02:01:00,50.5,50.0,29.98,SW,225,0.0,-999.0,98,-99.99,,,0.00,Acu-Link.com,2013-04-15 06:01:00,
2013-04-15 02:23:00,52.5,52.0,29.97,ESE,112,0.0,-999.0,98,-99.99,,,0.00,Acu-Link.com,2013-04-15 06:23:00,
2013-04-15 02:39:00,53.2,52.6,29.97,SSE,157,0.0,-999.0,98,-99.99,,,0.00,Acu-Link.com,2013-04-15 06:39:00,
2013-04-15 02:55:00,53.1,52.5,29.97,ENE,67,0.0,-999.0,98,-99.99,,,0.00,Acu-Link.com,2013-04-15 06:55:00,
2013-04-15 03:47:00,55.4,54.8,29.96,ESE,112,0.0,-999.0,98,-99.99,,,0.00,Acu-Link.com,2013-04-15 07:47:00,
2013-04-15 04:02:00,55.4,54.8,29.97,ESE,112,6.8,-999.0,98,-99.99,,,0.00,Acu-Link.com,2013-04-15 08:02:00,
2013-04-15 04:30:00,55.4,54.8,29.97,North,0,0.0,-999.0,98,-99.99,,,0.00,Acu-Link.com,2013-04-15 08:30:00,
2013-04-15 04:45:00,55.4,54.8,29.98,East,90,0.0,-999.0,98,-99.99,,,0.00,Acu-Link.com,2013-04-15 08:45:00,
2013-04-15 05:01:00,55.0,54.4,29.99,ESE,112,0.0,-999.0,98,-99.99,,,0.00,Acu-Link.com,2013-04-15 09:01:00,
2013-04-15 05:19:00,54.5,53.9,30.00,ESE,112,0.0,-999.0,98,-99.99,,,0.00,Acu-Link.com,2013-04-15 09:19:00,
2013-04-15 05:36:00,54.5,53.9,30.00,South,180,0.0,-999.0,98,-99.99,,,0.00,Acu-Link.com,2013-04-15 09:36:00,
2013-04-15 05:52:00,54.5,53.9,30.00,NNE,22,0.0,-999.0,98,-99.99,,,0.00,Acu-Link.com,2013-04-15 09:52:00,
2013-04-15 06:09:00,53.6,53.0,30.01,SW,225,0.0,-999.0,98,-99.99,,,0.00,Acu-Link.com,2013-04-15 10:09:00,
2013-04-15 06:25:00,53.6,53.0,30.02,SE,135,0.0,-999.0,98,-99.99,,,0.00,Acu-Link.com,2013-04-15 10:25:00,
2013-04-15 06:56:00,53.6,53.0,30.04,ESE,112,0.0,-999.0,98,-99.99,,,0.00,Acu-Link.com,2013-04-15 10:56:00,
2013-04-15 07:13:00,53.4,52.8,30.04,North,0,0.0,-999.0,98,-99.99,,,0.00,Acu-Link.com,2013-04-15 11:13:00,
2013-04-15 07:32:00,53.8,53.2,30.06,ESE,112,0.0,-999.0,98,-99.99,,,0.00,Acu-Link.com,2013-04-15 11:32:00,
2013-04-15 07:54:00,54.0,53.4,30.06,North,0,0.0,-999.0,98,-99.99,,,0.00,Acu-Link.com,2013-04-15 11:54:00,
2013-04-15 08:11:00,54.7,54.1,30.06,ESE,112,0.0,-999.0,98,-99.99,,,0.00,Acu-Link.com,2013-04-15 12:11:00,
2013-04-15 08:34:00,55.0,54.4,30.06,East,90,0.0,-999.0,98,-99.99,,,0.00,Acu-Link.com,2013-04-15 12:34:00,
2013-04-15 09:20:00,56.8,56.2,30.05,NNE,22,4.2,-999.0,98,-99.99,,,0.00,Acu-Link.com,2013-04-15 13:20:00,
2013-04-15 09:48:00,57.9,57.3,30.04,ESE,112,0.0,-999.0,98,-99.99,,,0.00,Acu-Link.com,2013-04-15 13:48:00,
2013-04-15 10:05:00,60.8,60.2,30.04,ESE,112,0.0,-999.0,98,-99.99,,,0.00,Acu-Link.com,2013-04-15 14:05:00,
2013-04-15 10:24:00,62.4,61.8,30.03,ESE,112,0.0,-999.0,98,-99.99,,,0.00,Acu-Link.com,2013-04-15 14:24:00,
2013-04-15 10:41:00,62.4,61.8,30.04,ESE,112,0.0,-999.0,98,-99.99,,,0.00,Acu-Link.com,2013-04-15 14:41:00,
2013-04-15 11:05:00,62.8,62.2,30.03,SE,135,4.7,-999.0,98,-99.99,,,0.00,Acu-Link.com,2013-04-15 15:05:00,
2013-04-15 11:26:00,62.8,62.2,30.03,NE,45,1.1,-999.0,98,-99.99,,,0.00,Acu-Link.com,2013-04-15 15:26:00,
2013-04-15 11:48:00,62.8,62.2,30.04,ESE,112,1.1,-999.0,98,-99.99,,,0.00,Acu-Link.com,2013-04-15 15:48:00,
2013-04-15 12:09:00,61.5,60.9,30.05,ESE,112,0.0,-999.0,98,-99.99,,,0.00,Acu-Link.com,2013-04-15 16:09:00,
2013-04-15 12:26:00,60.3,59.7,30.05,SE,135,0.0,-999.0,98,-99.99,,,0.00,Acu-Link.com,2013-04-15 16:26:00,
2013-04-15 13:05:00,60.8,60.2,30.04,ESE,112,0.0,-999.0,98,-99.99,,,0.00,Acu-Link.com,2013-04-15 17:05:00,
2013-04-15 13:21:00,61.5,60.9,30.05,SSE,157,0.0,-999.0,98,-99.99,,,0.00,Acu-Link.com,2013-04-15 17:21:00,
2013-04-15 13:44:00,61.3,60.7,30.05,East,90,0.0,-999.0,98,-99.99,,,0.00,Acu-Link.com,2013-04-15 17:44:00,
2013-04-15 14:43:00,60.8,60.2,30.05,SSE,157,0.0,-999.0,98,-99.99,,,0.00,Acu-Link.com,2013-04-15 18:43:00,
2013-04-15 15:02:00,61.0,60.4,30.05,ESE,112,0.0,-999.0,98,-99.99,,,0.00,Acu-Link.com,2013-04-15 19:02:00,
2013-04-15 15:19:00,60.3,59.7,30.05,ESE,112,0.0,-999.0,98,-99.99,,,0.00,Acu-Link.com,2013-04-15 19:19:00,
2013-04-15 15:38:00,60.3,59.7,30.05,ESE,112,0.0,-999.0,98,-99.99,,,0.00,Acu-Link.com,2013-04-15 19:38:00,
2013-04-15 15:57:00,59.7,59.1,30.04,SE,135,0.0,-999.0,98,-99.99,,,0.00,Acu-Link.com,2013-04-15 19:57:00,
2013-04-15 16:14:00,60.1,59.5,30.05,East,90,2.2,-999.0,98,-99.99,,,0.00,Acu-Link.com,2013-04-15 20:14:00,
2013-04-15 16:29:00,59.9,59.3,30.04,NW,315,0.0,-999.0,98,-99.99,,,0.00,Acu-Link.com,2013-04-15 20:29:00,
2013-04-15 16:46:00,59.9,59.3,30.05,South,180,0.0,-999.0,98,-99.99,,,0.00,Acu-Link.com,2013-04-15 20:46:00,
2013-04-15 17:02:00,59.9,59.3,30.04,SE,135,0.0,-999.0,98,-99.99,,,0.00,Acu-Link.com,2013-04-15 21:02:00,
2013-04-15 17:21:00,59.9,59.3,30.04,SE,135,0.0,-999.0,98,-99.99,,,0.00,Acu-Link.com,2013-04-15 21:21:00,
2013-04-15 17:40:00,60.1,59.5,30.04,ESE,112,0.0,-999.0,98,-99.99,,,0.00,Acu-Link.com,2013-04-15 21:40:00,
2013-04-15 17:59:00,60.4,59.8,30.05,ESE,112,0.0,-999.0,98,-99.99,,,0.00,Acu-Link.com,2013-04-15 21:59:00,
2013-04-15 18:14:00,60.6,60.0,30.05,SSW,202,0.0,-999.0,98,-99.99,,,0.00,Acu-Link.com,2013-04-15 22:14:00,
2013-04-15 18:31:00,60.6,60.0,30.04,ESE,112,0.0,-999.0,98,-99.99,,,0.00,Acu-Link.com,2013-04-15 22:31:00,
2013-04-15 18:46:00,60.4,59.8,30.05,ESE,112,0.0,-999.0,98,-99.99,,,0.00,Acu-Link.com,2013-04-15 22:46:00,
2013-04-15 19:02:00,60.3,59.7,30.04,SE,135,0.0,-999.0,98,-99.99,,,0.00,Acu-Link.com,2013-04-15 23:02:00,
2013-04-15 19:19:00,59.9,59.3,30.05,ESE,112,17.1,-999.0,98,-99.99,,,0.00,Acu-Link.com,2013-04-15 23:19:00,
2013-04-15 19:51:00,59.4,58.8,30.04,NNE,22,0.0,-999.0,98,-99.99,,,0.00,Acu-Link.com,2013-04-15 23:51:00,
2013-04-15 20:11:00,59.4,58.8,30.05,SE,135,0.0,-999.0,98,-99.99,,,0.00,Acu-Link.com,2013-04-16 00:11:00,
2013-04-15 20:32:00,59.0,58.4,30.05,NNW,337,0.0,-999.0,98,-99.99,,,0.00,Acu-Link.com,2013-04-16 00:32:00,
2013-04-15 20:48:00,58.6,58.0,30.06,ESE,112,0.0,-999.0,98,-99.99,,,0.00,Acu-Link.com,2013-04-16 00:48:00,
2013-04-15 21:05:00,58.5,57.9,30.06,SE,135,0.0,-999.0,98,-99.99,,,0.00,Acu-Link.com,2013-04-16 01:05:00,
2013-04-15 21:24:00,58.1,57.5,30.07,NNE,22,0.0,-999.0,98,-99.99,,,0.00,Acu-Link.com,2013-04-16 01:24:00,
2013-04-15 21:42:00,57.7,57.1,30.08,East,90,1.1,-999.0,98,-99.99,,,0.00,Acu-Link.com,2013-04-16 01:42:00,
2013-04-15 21:58:00,57.7,57.1,30.08,SSE,157,0.0,-999.0,98,-99.99,,,0.00,Acu-Link.com,2013-04-16 01:58:00,
2013-04-15 22:16:00,57.6,57.0,30.08,ESE,112,0.0,-999.0,98,-99.99,,,0.00,Acu-Link.com,2013-04-16 02:16:00,
2013-04-15 22:36:00,57.4,56.8,30.08,ESE,112,0.0,-999.0,98,-99.99,,,0.00,Acu-Link.com,2013-04-16 02:36:00,
2013-04-15 22:57:00,57.2,56.6,30.09,SSE,157,0.0,-999.0,98,-99.99,,,0.00,Acu-Link.com,2013-04-16 02:57:00,
2013-04-15 23:14:00,57.0,56.4,30.09,NW,315,0.0,-999.0,98,-99.99,,,0.00,Acu-Link.com,2013-04-16 03:14:00,
2013-04-15 23:33:00,57.0,56.4,30.09,ENE,67,0.0,-999.0,98,-99.99,,,0.00,Acu-Link.com,2013-04-16 03:33:00,
2013-04-15 23:53:00,56.5,55.9,30.08,South,180,0.0,-999.0,98,-99.99,,,0.00,Acu-Link.com,2013-04-16 03:53:00,